createdAt,value
2019-02-09T00:00:58.903Z,2.27
2019-02-09T00:03:32.595Z,2.50
2019-02-09T00:06:06.383Z,8.30
2019-02-09T00:08:40.066Z,4.37
2019-02-09T00:11:13.733Z,4.83
2019-02-09T00:13:47.354Z,2.00
2019-02-09T00:16:20.935Z,3.00
2019-02-09T00:18:58.603Z,3.70
2019-02-09T00:21:32.251Z,3.43
2019-02-09T00:24:06.040Z,3.93
2019-02-09T00:26:39.735Z,2.07
2019-02-09T00:29:13.387Z,6.53
2019-02-09T00:31:53.915Z,2.27
2019-02-09T00:34:28.420Z,6.03
2019-02-09T00:37:02.111Z,4.90
2019-02-09T00:39:35.704Z,3.03
2019-02-09T00:42:09.478Z,2.53
2019-02-09T00:44:43.174Z,1.50
2019-02-09T00:47:16.919Z,5.40
2019-02-09T00:49:50.494Z,5.90
2019-02-09T00:52:24.103Z,2.07
2019-02-09T00:54:57.691Z,4.37
2019-02-09T00:57:31.304Z,9.67
2019-02-09T01:00:25.094Z,3.87
2019-02-09T01:03:07.891Z,3.93
2019-02-09T01:05:44.353Z,5.13
2019-02-09T01:08:18.167Z,2.70
2019-02-09T01:10:51.857Z,3.80
2019-02-09T01:13:33.743Z,3.57
2019-02-09T01:16:07.564Z,2.70
2019-02-09T01:18:41.219Z,4.13
2019-02-09T01:21:14.917Z,2.00
2019-02-09T01:23:48.512Z,6.43
2019-02-09T01:26:26.221Z,2.67
2019-02-09T01:28:59.847Z,1.33
2019-02-09T01:31:33.602Z,2.97
2019-02-09T01:34:07.375Z,4.27
2019-02-09T01:36:44.161Z,3.90
2019-02-09T01:39:17.914Z,4.93
2019-02-09T01:41:54.652Z,3.10
2019-02-09T01:44:28.336Z,3.20
2019-02-09T01:47:05.921Z,3.43
2019-02-09T01:49:39.605Z,3.50
2019-02-09T01:52:13.280Z,1.90
2019-02-09T01:54:50.109Z,2.30
2019-02-09T01:57:23.796Z,1.60
2019-02-09T02:00:00.801Z,3.77
2019-02-09T02:02:34.487Z,3.47
2019-02-09T02:05:14.236Z,2.40
2019-02-09T02:07:47.982Z,5.73
2019-02-09T02:10:33.196Z,2.77
2019-02-09T02:13:09.291Z,1.63
2019-02-09T02:15:43.210Z,9.40
2019-02-09T02:18:16.892Z,4.77
2019-02-09T02:20:50.620Z,3.90
2019-02-09T02:23:24.306Z,3.40
2019-02-09T02:25:58.024Z,2.40
2019-02-09T02:28:31.624Z,2.00
2019-02-09T02:31:08.510Z,6.63
2019-02-09T02:33:42.199Z,6.57
2019-02-09T02:36:19.985Z,2.13
2019-02-09T02:38:53.992Z,4.57
2019-02-09T02:41:27.609Z,4.73
2019-02-09T02:44:07.444Z,4.27
2019-02-09T02:46:41.120Z,3.53
2019-02-09T02:49:26.968Z,3.17
2019-02-09T02:52:00.576Z,4.83
2019-02-09T02:54:34.224Z,2.20
2019-02-09T02:57:07.904Z,4.57
2019-02-09T02:59:41.488Z,2.40
2019-02-09T03:02:24.609Z,3.57
2019-02-09T03:05:06.250Z,4.33
2019-02-09T03:07:42.817Z,1.97
2019-02-09T03:10:16.872Z,3.43
2019-02-09T03:13:02.372Z,4.60
2019-02-09T03:15:36.333Z,6.37
2019-02-09T03:18:13.160Z,3.90
2019-02-09T03:20:56.421Z,4.30
2019-02-09T03:23:29.987Z,3.77
2019-02-09T03:26:03.752Z,5.53
2019-02-09T03:28:37.338Z,5.83
2019-02-09T03:31:11.085Z,5.00
2019-02-09T03:33:44.953Z,2.23
2019-02-09T03:36:24.586Z,2.37
2019-02-09T03:38:58.199Z,6.13
2019-02-09T03:41:41.618Z,2.53
2019-02-09T03:44:15.346Z,3.33
2019-02-09T03:46:48.983Z,5.00
2019-02-09T03:49:22.590Z,3.60
2019-02-09T03:51:56.237Z,3.60
2019-02-09T03:54:32.999Z,5.00
2019-02-09T03:57:06.579Z,5.53
2019-02-09T03:59:40.338Z,2.67
2019-02-09T04:02:27.039Z,4.93
2019-02-09T04:05:00.657Z,4.23
2019-02-09T04:07:37.322Z,2.40
2019-02-09T04:10:14.042Z,3.20
2019-02-09T04:12:49.721Z,4.17
2019-02-09T04:15:25.418Z,8.20
2019-02-09T04:18:11.167Z,3.83
2019-02-09T04:20:44.790Z,6.03
2019-02-09T04:23:21.544Z,5.10
2019-02-09T04:25:55.632Z,4.80
2019-02-09T04:28:38.737Z,5.73
2019-02-09T04:31:12.355Z,3.77
2019-02-09T04:33:45.951Z,6.23
2019-02-09T04:36:24.329Z,7.57
2019-02-09T04:38:57.914Z,3.73
2019-02-09T04:41:31.539Z,4.80
2019-02-09T04:44:05.195Z,4.37
2019-02-09T04:46:38.815Z,4.23
2019-02-09T04:49:24.627Z,5.17
2019-02-09T04:51:58.304Z,5.83
2019-02-09T04:54:31.922Z,3.40
2019-02-09T04:57:18.701Z,3.83
2019-02-09T04:59:52.447Z,6.53
2019-02-09T05:02:26.096Z,6.10
2019-02-09T05:05:09.115Z,5.67
2019-02-09T05:07:42.831Z,2.73
2019-02-09T05:10:18.379Z,5.80
2019-02-09T05:12:52.097Z,5.47
2019-02-09T05:15:26.825Z,5.20
2019-02-09T05:18:00.407Z,2.87
2019-02-09T05:20:34.027Z,2.67
2019-02-09T05:23:07.598Z,6.43
2019-02-09T05:25:41.232Z,4.10
2019-02-09T05:28:14.894Z,4.37
2019-02-09T05:30:54.640Z,4.53
2019-02-09T05:33:28.313Z,5.80
2019-02-09T05:36:02.062Z,5.13
2019-02-09T05:38:35.750Z,4.37
2019-02-09T05:41:09.369Z,7.97
2019-02-09T05:43:43.029Z,3.00
2019-02-09T05:46:16.668Z,5.63
2019-02-09T05:48:56.402Z,4.63
2019-02-09T05:51:30.131Z,3.63
2019-02-09T05:54:04.427Z,4.10
2019-02-09T05:56:38.351Z,3.63
2019-02-09T05:59:11.984Z,4.20
2019-02-09T06:02:00.716Z,5.57
2019-02-09T06:04:34.395Z,5.73
2019-02-09T06:07:14.088Z,2.20
2019-02-09T06:09:47.905Z,4.30
2019-02-09T06:12:35.840Z,4.43
2019-02-09T06:15:13.169Z,3.50
2019-02-09T06:17:51.941Z,5.30
2019-02-09T06:20:27.565Z,5.60
2019-02-09T06:23:02.270Z,7.43
2019-02-09T06:25:35.922Z,6.03
2019-02-09T06:28:09.597Z,1.37
2019-02-09T06:30:49.549Z,3.13
2019-02-09T06:33:23.142Z,1.40
2019-02-09T06:35:56.769Z,5.27
2019-02-09T06:38:37.618Z,2.97
2019-02-09T06:41:11.294Z,2.73
2019-02-09T06:43:44.984Z,2.80
2019-02-09T06:46:18.594Z,4.57
2019-02-09T06:48:58.517Z,4.30
2019-02-09T06:51:32.123Z,5.00
2019-02-09T06:54:08.896Z,4.17
2019-02-09T06:56:42.513Z,2.17
2019-02-09T06:59:16.199Z,2.03
2019-02-09T07:01:49.791Z,2.73
2019-02-09T07:04:23.393Z,3.43
2019-02-09T07:07:00.105Z,3.57
2019-02-09T07:09:33.861Z,3.73
2019-02-09T07:12:23.084Z,3.03
2019-02-09T07:14:56.763Z,5.30
2019-02-09T07:17:30.343Z,4.33
2019-02-09T07:20:05.821Z,3.97
2019-02-09T07:22:39.465Z,2.43
2019-02-09T07:25:16.202Z,3.00
2019-02-09T07:27:49.843Z,3.23
2019-02-09T07:30:29.045Z,1.93
2019-02-09T07:33:02.894Z,3.17
2019-02-09T07:35:36.649Z,3.23
2019-02-09T07:38:10.377Z,4.87
2019-02-09T07:40:56.393Z,3.00
2019-02-09T07:43:41.832Z,5.30
2019-02-09T07:46:15.792Z,4.43
2019-02-09T07:48:52.982Z,2.67
2019-02-09T07:51:26.591Z,2.20
2019-02-09T07:54:00.325Z,1.90
2019-02-09T07:56:37.171Z,3.17
2019-02-09T07:59:10.764Z,3.20
2019-02-09T08:02:04.242Z,4.53
2019-02-09T08:04:32.308Z,5.27
2019-02-09T08:07:06.040Z,1.33
2019-02-09T08:09:41.676Z,3.90
2019-02-09T08:12:15.394Z,4.27
2019-02-09T08:14:49.100Z,2.73
2019-02-09T08:17:22.424Z,2.00
2019-02-09T08:19:56.101Z,5.00
2019-02-09T08:22:33.523Z,1.27
2019-02-09T08:25:10.210Z,2.83
2019-02-09T08:27:43.965Z,1.37
2019-02-09T08:30:24.883Z,1.30
2019-02-09T08:32:58.647Z,4.17
2019-02-09T08:35:35.714Z,2.10
2019-02-09T08:38:10.372Z,2.10
2019-02-09T08:40:44.100Z,3.20
2019-02-09T08:43:17.784Z,4.07
2019-02-09T08:46:05.475Z,5.03
2019-02-09T08:48:39.231Z,2.03
2019-02-09T08:51:17.031Z,2.77
2019-02-09T08:53:50.634Z,2.20
2019-02-09T08:56:28.000Z,2.37
2019-02-09T08:59:01.569Z,2.70
2019-02-09T09:01:42.652Z,3.53
2019-02-09T09:04:16.320Z,3.90
2019-02-09T09:06:51.863Z,2.10
2019-02-09T09:09:25.664Z,2.67
2019-02-09T09:11:59.281Z,3.43
2019-02-09T09:14:32.915Z,3.43
2019-02-09T09:17:06.659Z,3.27
2019-02-09T09:19:52.540Z,2.43
2019-02-09T09:22:26.270Z,3.63
2019-02-09T09:25:05.516Z,3.30
2019-02-09T09:27:39.251Z,2.27
2019-02-09T09:30:15.931Z,4.73
2019-02-09T09:32:55.780Z,3.33
2019-02-09T09:35:29.476Z,2.47
2019-02-09T09:38:03.191Z,1.97
2019-02-09T09:40:39.559Z,2.17
2019-02-09T09:43:13.286Z,1.17
2019-02-09T09:45:47.043Z,4.13
2019-02-09T09:48:23.863Z,2.67
2019-02-09T09:50:57.636Z,4.33
2019-02-09T09:53:35.883Z,2.47
2019-02-09T09:56:09.647Z,3.97
2019-02-09T09:58:48.063Z,3.43
2019-02-09T10:01:21.755Z,2.98
2019-02-09T10:03:55.439Z,6.83
2019-02-09T10:06:29.189Z,4.17
2019-02-09T10:09:03.019Z,4.43
2019-02-09T10:11:44.634Z,2.47
2019-02-09T10:14:18.234Z,5.57
2019-02-09T10:16:51.890Z,2.33
2019-02-09T10:19:26.219Z,3.17
2019-02-09T10:22:00.387Z,2.70
2019-02-09T10:24:37.654Z,4.20
2019-02-09T10:27:11.996Z,4.30
2019-02-09T10:30:03.414Z,4.20
2019-02-09T10:32:44.107Z,4.20
2019-02-09T10:35:14.677Z,4.77
2019-02-09T10:37:51.913Z,2.80
2019-02-09T10:40:31.047Z,5.23
2019-02-09T10:43:07.503Z,3.10
2019-02-09T10:45:42.846Z,4.33
2019-02-09T10:48:16.487Z,5.57
2019-02-09T10:50:50.325Z,6.15
2019-02-09T10:53:29.194Z,5.03
2019-02-09T10:56:03.519Z,10.15
2019-02-09T10:58:37.295Z,4.03
2019-02-09T11:01:13.921Z,3.77
2019-02-09T11:03:47.914Z,6.17
2019-02-09T11:06:29.824Z,8.98
2019-02-09T11:09:07.070Z,6.10
2019-02-09T11:11:41.449Z,4.85
2019-02-09T11:14:17.711Z,7.72
2019-02-09T11:16:52.011Z,5.85
2019-02-09T11:19:31.580Z,2.90
2019-02-09T11:22:05.887Z,6.28
2019-02-09T11:24:40.078Z,3.75
2019-02-09T11:27:14.645Z,5.08
2019-02-09T11:29:48.907Z,3.85
2019-02-09T11:32:23.142Z,4.67
2019-02-09T11:34:59.706Z,3.27
2019-02-09T11:37:33.988Z,5.42
2019-02-09T11:40:39.999Z,6.92
2019-02-09T11:43:15.416Z,3.52
2019-02-09T11:45:49.760Z,8.65
2019-02-09T11:48:33.327Z,5.75
2019-02-09T11:51:07.676Z,7.12
2019-02-09T11:53:42.516Z,6.27
2019-02-09T11:56:16.198Z,6.93
2019-02-09T11:58:51.303Z,7.50
2019-02-09T12:01:25.058Z,2.03
2019-02-09T12:04:11.285Z,4.77
2019-02-09T12:06:44.908Z,4.53
2019-02-09T12:09:19.463Z,11.23
2019-02-09T12:11:53.084Z,3.70
2019-02-09T12:14:30.909Z,3.80
2019-02-09T12:17:04.993Z,4.67
2019-02-09T12:19:49.892Z,8.77
2019-02-09T12:22:23.574Z,2.97
2019-02-09T12:25:01.084Z,5.90
2019-02-09T12:27:35.153Z,3.73
2019-02-09T12:30:11.822Z,3.80
2019-02-09T12:32:45.502Z,5.53
2019-02-09T12:35:22.200Z,3.97
2019-02-09T12:37:56.018Z,5.93
2019-02-09T12:40:34.019Z,5.80
2019-02-09T12:43:07.781Z,3.93
2019-02-09T12:45:42.768Z,4.93
2019-02-09T12:48:26.408Z,7.87
2019-02-09T12:51:00.020Z,6.00
2019-02-09T12:53:34.829Z,5.67
2019-02-09T12:56:08.719Z,5.63
2019-02-09T12:58:54.709Z,4.80
2019-02-09T13:01:29.001Z,5.80
2019-02-09T13:04:11.134Z,6.17
2019-02-09T13:06:44.829Z,8.07
2019-02-09T13:09:18.552Z,8.43
2019-02-09T13:11:57.179Z,8.27
2019-02-09T13:14:30.871Z,4.13
2019-02-09T13:17:05.217Z,8.17
2019-02-09T13:19:39.879Z,9.60
2019-02-09T13:22:32.023Z,12.20
2019-02-09T13:25:08.726Z,6.43
2019-02-09T13:27:42.568Z,6.07
2019-02-09T13:30:40.628Z,6.17
2019-02-09T13:33:15.313Z,5.80
2019-02-09T13:35:49.047Z,9.30
2019-02-09T13:38:22.671Z,6.63
2019-02-09T13:40:56.400Z,9.87
2019-02-09T13:43:32.585Z,6.23
2019-02-09T13:46:06.316Z,7.70
2019-02-09T13:48:48.119Z,5.20
2019-02-09T13:51:21.775Z,11.53
2019-02-09T13:53:55.393Z,7.70
2019-02-09T13:56:35.337Z,8.67
2019-02-09T13:59:09.138Z,8.17
2019-02-09T14:01:42.753Z,7.73
2019-02-09T14:04:16.337Z,6.37
2019-02-09T14:06:53.260Z,10.33
2019-02-09T14:09:26.927Z,10.40
2019-02-09T14:12:00.675Z,7.37
2019-02-09T14:14:34.272Z,7.53
2019-02-09T14:17:07.959Z,7.10
2019-02-09T14:19:44.714Z,8.60
2019-02-09T14:22:18.386Z,8.10
2019-02-09T14:24:52.217Z,8.93
2019-02-09T14:27:27.083Z,5.13
2019-02-09T14:30:01.348Z,8.57
2019-02-09T14:32:36.062Z,7.50
2019-02-09T14:35:11.349Z,9.50
2019-02-09T14:37:45.078Z,9.60
2019-02-09T14:40:42.883Z,6.13
2019-02-09T14:43:16.602Z,7.00
2019-02-09T14:46:04.727Z,4.50
2019-02-09T14:48:38.500Z,6.37
2019-02-09T14:51:13.254Z,6.93
2019-02-09T14:53:46.904Z,6.53
2019-02-09T14:56:20.538Z,4.50
2019-02-09T14:58:54.197Z,6.60
2019-02-09T15:01:41.939Z,9.30
2019-02-09T15:04:15.586Z,8.47
2019-02-09T15:07:04.451Z,7.50
2019-02-09T15:09:38.209Z,7.07
2019-02-09T15:12:11.949Z,6.80
2019-02-09T15:14:45.990Z,4.93
2019-02-09T15:17:19.639Z,6.33
2019-02-09T15:20:11.857Z,5.07
2019-02-09T15:22:45.945Z,5.37
2019-02-09T15:25:19.699Z,6.83
2019-02-09T15:27:54.332Z,6.13
2019-02-09T15:30:31.225Z,9.60
2019-02-09T15:33:08.500Z,5.33
2019-02-09T15:35:43.808Z,6.80
2019-02-09T15:38:17.553Z,5.40
2019-02-09T15:40:52.402Z,4.50
2019-02-09T15:43:26.167Z,5.43
2019-02-09T15:45:59.829Z,4.73
2019-02-09T15:49:06.971Z,13.70
2019-02-09T15:51:40.566Z,7.03
2019-02-09T15:54:21.727Z,4.43
2019-02-09T15:56:55.679Z,8.77
2019-02-09T15:59:33.943Z,3.57
2019-02-09T16:02:23.194Z,2.97
2019-02-09T16:04:56.799Z,5.60
2019-02-09T16:07:30.587Z,3.87
2019-02-09T16:10:07.023Z,3.87
2019-02-09T16:12:44.800Z,4.80
2019-02-09T16:15:32.087Z,6.40
2019-02-09T16:18:06.453Z,3.30
2019-02-09T16:20:40.063Z,11.33
2019-02-09T16:23:13.740Z,7.80
2019-02-09T16:26:02.713Z,4.40
2019-02-09T16:28:36.326Z,6.60
2019-02-09T16:31:10.981Z,5.47
2019-02-09T16:33:44.603Z,3.87
2019-02-09T16:36:18.263Z,7.07
2019-02-09T16:38:51.921Z,7.90
2019-02-09T16:41:25.685Z,4.80
2019-02-09T16:44:07.443Z,4.30
2019-02-09T16:46:41.209Z,2.63
2019-02-09T16:49:14.787Z,4.47
2019-02-09T16:51:48.543Z,4.23
2019-02-09T16:54:22.179Z,2.60
2019-02-09T16:57:08.040Z,5.57
2019-02-09T16:59:41.807Z,6.90
2019-02-09T17:02:15.548Z,5.60
2019-02-09T17:04:49.285Z,4.37
2019-02-09T17:07:27.657Z,5.90
2019-02-09T17:10:01.416Z,4.40
2019-02-09T17:12:35.079Z,6.03
2019-02-09T17:15:12.107Z,5.37
2019-02-09T17:17:53.163Z,3.73
2019-02-09T17:20:39.140Z,5.77
2019-02-09T17:23:12.865Z,8.47
2019-02-09T17:26:02.511Z,7.33
2019-02-09T17:28:36.092Z,6.00
2019-02-09T17:31:31.284Z,5.87
2019-02-09T17:34:07.058Z,8.57
2019-02-09T17:36:42.670Z,2.80
2019-02-09T17:39:16.331Z,8.50
2019-02-09T17:41:50.091Z,5.27
2019-02-09T17:44:26.884Z,6.60
2019-02-09T17:47:00.596Z,7.87
2019-02-09T17:49:34.357Z,7.13
2019-02-09T17:52:18.617Z,9.37
2019-02-09T17:54:52.314Z,10.97
2019-02-09T17:57:25.887Z,4.60
2019-02-09T17:59:59.580Z,7.07
2019-02-09T18:02:33.249Z,7.30
2019-02-09T18:05:07.712Z,9.03
2019-02-09T18:07:53.767Z,7.80
2019-02-09T18:10:27.368Z,5.53
2019-02-09T18:13:01.052Z,6.57
2019-02-09T18:15:34.779Z,3.77
2019-02-09T18:18:08.531Z,9.27
2019-02-09T18:20:55.592Z,6.87
2019-02-09T18:23:29.212Z,10.07
2019-02-09T18:26:02.869Z,6.57
2019-02-09T18:28:36.618Z,6.13
2019-02-09T18:31:10.317Z,9.07
2019-02-09T18:33:44.004Z,5.43
2019-02-09T18:36:28.571Z,10.07
2019-02-09T18:39:02.469Z,9.40
2019-02-09T18:41:39.867Z,6.23
2019-02-09T18:44:13.503Z,7.37
2019-02-09T18:46:48.060Z,6.63
2019-02-09T18:49:21.775Z,5.30
2019-02-09T18:52:03.527Z,9.90
2019-02-09T18:54:37.097Z,7.57
2019-02-09T18:57:10.927Z,6.63
2019-02-09T18:59:44.599Z,10.37
2019-02-09T19:02:18.267Z,4.90
2019-02-09T19:04:51.851Z,5.40
2019-02-09T19:07:28.711Z,10.23
2019-02-09T19:10:06.563Z,8.00
2019-02-09T19:12:40.259Z,6.37
2019-02-09T19:15:27.776Z,14.90
2019-02-09T19:18:01.811Z,4.27
2019-02-09T19:20:44.227Z,7.27
2019-02-09T19:23:17.975Z,11.13
2019-02-09T19:25:51.702Z,6.27
2019-02-09T19:28:34.533Z,7.73
2019-02-09T19:31:08.314Z,9.77
2019-02-09T19:33:42.003Z,7.03
2019-02-09T19:36:15.768Z,14.47
2019-02-09T19:38:49.444Z,16.13
2019-02-09T19:41:23.132Z,8.23
2019-02-09T19:44:05.958Z,9.67
2019-02-09T19:46:39.728Z,15.13
2019-02-09T19:49:16.356Z,7.13
2019-02-09T19:51:56.558Z,12.53
2019-02-09T19:54:30.225Z,13.33
2019-02-09T19:57:09.739Z,12.97
2019-02-09T19:59:45.446Z,11.90
2019-02-09T20:02:19.200Z,7.13
2019-02-09T20:04:52.823Z,8.63
2019-02-09T20:07:33.296Z,5.33
2019-02-09T20:10:16.247Z,7.57
2019-02-09T20:12:56.112Z,4.97
2019-02-09T20:15:29.817Z,8.57
2019-02-09T20:18:16.231Z,11.40
2019-02-09T20:21:14.555Z,9.47
2019-02-09T20:23:48.178Z,12.27
2019-02-09T20:26:28.006Z,10.23
2019-02-09T20:29:01.725Z,7.40
2019-02-09T20:31:35.420Z,8.97
2019-02-09T20:34:09.004Z,9.50
2019-02-09T20:36:42.771Z,9.60
2019-02-09T20:39:16.358Z,13.43
2019-02-09T20:44:56.239Z,8.97
2019-02-09T20:47:47.948Z,13.57
2019-02-09T20:50:30.257Z,14.03
2019-02-09T20:53:16.679Z,9.53
2019-02-09T20:55:50.347Z,11.07
2019-02-09T20:58:24.131Z,14.77
2019-02-09T21:00:58.120Z,12.00
2019-02-09T21:03:31.815Z,10.23
2019-02-09T21:06:05.573Z,13.80
2019-02-09T21:08:40.492Z,7.97
2019-02-09T21:11:15.399Z,16.37
2019-02-09T21:14:07.255Z,12.33
2019-02-09T21:16:40.935Z,8.33
2019-02-09T21:19:14.583Z,11.53
2019-02-09T21:21:48.920Z,11.00
2019-02-09T21:24:22.613Z,14.00
2019-02-09T21:27:08.510Z,8.00
2019-02-09T21:29:54.265Z,11.27
2019-02-09T21:32:41.166Z,10.30
2019-02-09T21:35:16.821Z,12.77
2019-02-09T21:37:50.576Z,12.77
2019-02-09T21:40:28.848Z,10.00
2019-02-09T21:43:02.568Z,11.10
2019-02-09T21:45:45.436Z,15.60
2019-02-09T21:48:18.012Z,11.30
2019-02-09T21:51:07.709Z,17.57
2019-02-09T21:53:41.392Z,12.47
2019-02-09T21:56:15.048Z,15.07
2019-02-09T21:58:48.660Z,11.77
2019-02-09T22:01:40.566Z,10.87
2019-02-09T22:04:14.197Z,15.23
2019-02-09T22:06:47.850Z,15.30
2019-02-09T22:09:28.415Z,13.70
2019-02-09T22:12:02.116Z,14.40
2019-02-09T22:14:35.860Z,12.63
2019-02-09T22:17:09.679Z,16.20
2019-02-09T22:20:05.922Z,14.73
2019-02-09T22:22:39.526Z,10.47
2019-02-09T22:25:18.737Z,9.23
2019-02-09T22:27:52.468Z,11.80
2019-02-09T22:30:35.977Z,12.10
2019-02-09T22:33:09.681Z,18.77
2019-02-09T22:35:43.337Z,10.50
2019-02-09T22:38:21.948Z,21.83
2019-02-09T22:41:01.397Z,13.10
2019-02-09T22:43:34.978Z,17.43
2019-02-09T22:46:13.576Z,16.03
2019-02-09T22:48:47.232Z,12.33
2019-02-09T22:51:20.987Z,15.43
2019-02-09T22:54:01.336Z,18.67
2019-02-09T22:56:38.751Z,16.60
2019-02-09T22:59:12.482Z,14.83
2019-02-09T23:01:46.544Z,11.77
2019-02-09T23:04:32.102Z,14.73
2019-02-09T23:07:05.935Z,17.53
2019-02-09T23:09:39.615Z,15.63
2019-02-09T23:12:14.332Z,12.13
2019-02-09T23:14:47.967Z,13.90
2019-02-09T23:17:21.592Z,13.23
2019-02-09T23:20:04.419Z,14.33
2019-02-09T23:22:38.179Z,10.93
2019-02-09T23:25:11.867Z,13.97
2019-02-09T23:27:51.810Z,12.67
2019-02-09T23:30:25.527Z,16.17
2019-02-09T23:33:05.380Z,10.90
2019-02-09T23:35:38.964Z,13.00
2019-02-09T23:38:12.571Z,14.97
2019-02-09T23:40:49.243Z,13.23
2019-02-09T23:43:22.895Z,12.83
2019-02-09T23:45:56.539Z,12.93
2019-02-09T23:48:40.938Z,14.53
2019-02-09T23:51:14.627Z,16.37
2019-02-09T23:53:48.263Z,14.30
2019-02-09T23:56:21.901Z,16.97
2019-02-09T23:58:55.492Z,13.47
